createdAt,value
2023-02-23T00:01:25.142Z,75.00
2023-02-23T00:03:55.338Z,75.40
2023-02-23T00:06:24.520Z,75.60
2023-02-23T00:08:52.551Z,76.50
2023-02-23T00:11:20.983Z,77.80
2023-02-23T00:13:50.349Z,77.10
2023-02-23T00:16:21.923Z,77.00
2023-02-23T00:18:51.111Z,76.00
2023-02-23T00:21:20.280Z,75.10
2023-02-23T00:23:49.701Z,75.50
2023-02-23T00:26:18.007Z,76.40
2023-02-23T00:28:45.575Z,76.20
2023-02-23T00:31:13.185Z,76.30
2023-02-23T00:33:41.507Z,75.10
2023-02-23T00:36:11.065Z,76.00
2023-02-23T00:38:41.034Z,75.10
2023-02-23T00:41:09.945Z,76.60
2023-02-23T00:43:38.882Z,76.20
2023-02-23T00:46:07.601Z,75.40
2023-02-23T00:48:36.560Z,76.70
2023-02-23T00:51:05.318Z,75.50
2023-02-23T00:53:33.248Z,75.00
2023-02-23T00:56:01.656Z,74.80
2023-02-23T00:58:31.923Z,75.80
2023-02-23T01:01:02.983Z,75.80
2023-02-23T01:03:31.146Z,78.00
2023-02-23T01:06:05.842Z,78.00
2023-02-23T01:11:47.132Z,76.80
2023-02-23T01:14:17.238Z,74.90
2023-02-23T01:17:01.493Z,75.70
2023-02-23T01:19:29.236Z,76.00
2023-02-23T01:21:58.471Z,74.60
2023-02-23T01:24:26.419Z,76.20
2023-02-23T01:26:54.090Z,76.20
2023-02-23T01:29:22.940Z,76.40
2023-02-23T01:35:19.579Z,76.10
2023-02-23T01:37:47.957Z,76.10
2023-02-23T01:40:28.952Z,76.10
2023-02-23T01:43:43.940Z,75.80
2023-02-23T01:46:12.308Z,75.70
2023-02-23T01:48:40.544Z,75.70
2023-02-23T01:51:13.821Z,75.50
2023-02-23T01:54:15.672Z,76.10
2023-02-23T01:57:09.017Z,74.90
2023-02-23T02:02:39.353Z,76.00
2023-02-23T02:05:13.614Z,75.20
2023-02-23T02:07:48.853Z,74.60
2023-02-23T02:10:16.612Z,75.10
2023-02-23T02:12:44.600Z,75.30
2023-02-23T02:15:18.522Z,74.20
2023-02-23T02:18:04.437Z,73.60
2023-02-23T02:20:58.875Z,73.30
2023-02-23T02:23:57.018Z,74.10
2023-02-23T02:26:55.397Z,73.50
2023-02-23T02:32:19.933Z,73.90
2023-02-23T02:34:47.477Z,72.70
2023-02-23T02:37:28.177Z,73.10
2023-02-23T02:40:16.642Z,73.70
2023-02-23T02:42:51.820Z,73.00
2023-02-23T02:45:21.542Z,73.10
2023-02-23T02:47:58.786Z,72.80
2023-02-23T02:50:33.741Z,72.40
2023-02-23T02:53:11.514Z,72.30
2023-02-23T02:55:43.726Z,72.10
2023-02-23T02:58:12.988Z,72.40
2023-02-23T03:01:02.701Z,71.90
2023-02-23T03:03:50.145Z,72.20
2023-02-23T03:06:37.363Z,72.60
2023-02-23T03:09:35.484Z,72.60
2023-02-23T03:14:51.057Z,72.40
2023-02-23T03:20:31.045Z,72.40
2023-02-23T03:23:42.544Z,72.40
2023-02-23T03:26:45.774Z,72.10
2023-02-23T03:29:49.540Z,71.90
2023-02-23T03:32:44.296Z,71.80
2023-02-23T03:35:31.026Z,72.20
2023-02-23T03:38:22.286Z,71.50
2023-02-23T03:41:11.116Z,71.40
2023-02-23T03:44:04.765Z,71.10
2023-02-23T03:46:51.310Z,71.20
2023-02-23T03:49:39.219Z,70.90
2023-02-23T03:52:30.316Z,70.90
2023-02-23T03:55:20.733Z,70.60
2023-02-23T03:58:10.479Z,70.40
2023-02-23T04:01:07.163Z,70.00
2023-02-23T04:03:55.656Z,69.90
2023-02-23T07:33:44.020Z,58.40
2023-02-23T07:38:51.084Z,58.50
2023-02-23T07:41:20.645Z,59.00
2023-02-23T07:43:51.741Z,58.00
2023-02-23T07:46:20.221Z,59.30
2023-02-23T07:48:48.152Z,59.80
2023-02-23T07:51:22.214Z,60.60
2023-02-23T07:54:00.373Z,60.10
2023-02-23T07:56:28.227Z,57.90
2023-02-23T07:59:27.750Z,57.90
2023-02-23T08:02:01.915Z,58.40
2023-02-23T08:04:44.430Z,58.30
2023-02-23T08:07:13.352Z,58.30
2023-02-23T08:09:40.928Z,57.90
2023-02-23T08:12:08.547Z,58.70
2023-02-23T08:14:37.888Z,59.00
2023-02-23T08:17:05.970Z,58.80
2023-02-23T08:19:34.969Z,59.80
2023-02-23T08:22:14.014Z,58.20
2023-02-23T08:24:47.883Z,58.80
2023-02-23T08:27:18.200Z,58.50
2023-02-23T08:29:47.891Z,57.60
2023-02-23T08:32:19.123Z,58.40
2023-02-23T08:34:47.121Z,57.60
2023-02-23T08:37:19.872Z,59.00
2023-02-23T08:39:48.669Z,59.50
2023-02-23T08:42:19.631Z,58.30
2023-02-23T08:44:53.658Z,57.60
2023-02-23T08:47:24.516Z,58.00
2023-02-23T08:49:53.133Z,59.20
2023-02-23T08:52:22.582Z,58.80
2023-02-23T08:54:52.912Z,58.10
2023-02-23T08:57:20.706Z,57.90
2023-02-23T08:59:48.632Z,56.90
2023-02-23T09:02:18.273Z,57.40
2023-02-23T09:04:46.673Z,57.30
2023-02-23T09:07:16.385Z,58.20
2023-02-23T09:09:44.235Z,59.30
2023-02-23T09:12:12.065Z,59.30
2023-02-23T09:14:41.511Z,59.00
2023-02-23T09:17:09.051Z,58.10
2023-02-23T09:19:36.683Z,57.70
2023-02-23T09:22:05.291Z,57.10
2023-02-23T09:24:33.675Z,57.20
2023-02-23T09:27:01.461Z,57.60
2023-02-23T09:29:33.216Z,58.10
2023-02-23T09:32:11.102Z,59.20
2023-02-23T09:34:41.778Z,58.00
2023-02-23T09:37:09.428Z,56.70
2023-02-23T09:39:39.065Z,57.20
2023-02-23T09:42:25.657Z,58.70
2023-02-23T09:45:16.798Z,57.90
2023-02-23T09:48:04.262Z,56.40
2023-02-23T09:50:32.704Z,57.60
2023-02-23T09:53:06.010Z,57.20
2023-02-23T09:55:35.038Z,56.70
2023-02-23T09:58:17.696Z,57.10
2023-02-23T10:00:46.945Z,57.20
2023-02-23T10:03:15.027Z,57.60
2023-02-23T10:05:45.352Z,57.00
2023-02-23T10:08:22.263Z,57.10
2023-02-23T10:10:56.683Z,57.00
2023-02-23T10:13:34.078Z,57.10
2023-02-23T10:16:33.914Z,57.40
2023-02-23T10:19:13.343Z,57.10
2023-02-23T10:21:42.547Z,57.80
2023-02-23T10:24:10.042Z,58.10
2023-02-23T10:26:40.617Z,58.40
2023-02-23T10:29:17.754Z,58.30
2023-02-23T10:31:48.376Z,58.20
2023-02-23T10:34:17.894Z,58.30
2023-02-23T10:36:46.182Z,58.40
2023-02-23T10:39:14.337Z,58.40
2023-02-23T10:41:42.464Z,57.90
2023-02-23T10:44:18.022Z,57.90
2023-02-23T10:46:46.916Z,58.40
2023-02-23T10:49:23.638Z,58.30
2023-02-23T10:52:03.165Z,59.00
2023-02-23T10:54:38.617Z,58.50
2023-02-23T10:57:08.996Z,58.60
2023-02-23T10:59:38.487Z,58.50
2023-02-23T11:02:17.852Z,58.60
2023-02-23T11:04:53.509Z,58.70
2023-02-23T11:07:31.577Z,58.80
2023-02-23T11:10:00.114Z,59.00
2023-02-23T11:12:43.144Z,59.00
2023-02-23T11:15:32.153Z,59.20
2023-02-23T11:18:08.978Z,59.20
2023-02-23T11:20:45.269Z,59.20
2023-02-23T11:23:18.883Z,59.40
2023-02-23T11:25:49.505Z,59.40
2023-02-23T11:28:31.624Z,59.50
2023-02-23T11:31:05.093Z,59.60
2023-02-23T11:33:36.591Z,59.60
2023-02-23T11:36:38.148Z,59.70
2023-02-23T11:39:09.644Z,59.90
2023-02-23T11:41:39.029Z,59.80
2023-02-23T11:44:08.601Z,59.80
2023-02-23T11:46:38.697Z,59.80
2023-02-23T11:49:08.274Z,60.00
2023-02-23T11:51:37.328Z,60.00
2023-02-23T11:54:08.058Z,60.20
2023-02-23T11:56:36.340Z,60.10
2023-02-23T11:59:08.198Z,60.30
2023-02-23T12:01:41.168Z,60.40
2023-02-23T12:04:11.880Z,60.40
2023-02-23T12:06:42.929Z,60.70
2023-02-23T12:09:34.953Z,60.60
2023-02-23T12:12:08.311Z,60.60
2023-02-23T12:14:51.321Z,60.70
2023-02-23T12:17:23.112Z,60.70
2023-02-23T12:20:02.483Z,61.30
2023-02-23T12:22:34.986Z,60.30
2023-02-23T12:25:06.384Z,60.50
2023-02-23T12:27:35.211Z,60.70
2023-02-23T12:30:20.172Z,60.80
2023-02-23T12:32:55.571Z,60.70
2023-02-23T12:35:23.738Z,60.80
2023-02-23T12:38:05.385Z,60.80
2023-02-23T12:40:36.218Z,61.50
2023-02-23T12:43:38.212Z,61.00
2023-02-23T12:46:09.581Z,61.80
2023-02-23T12:49:12.898Z,61.40
2023-02-23T12:51:43.644Z,61.60
2023-02-23T12:54:12.980Z,61.70
2023-02-23T12:56:55.798Z,61.60
2023-02-23T12:59:26.837Z,61.50
2023-02-23T13:01:54.730Z,61.80
2023-02-23T13:04:22.731Z,61.90
2023-02-23T13:07:07.497Z,61.90
2023-02-23T13:09:37.774Z,62.30
2023-02-23T13:12:26.471Z,62.40
2023-02-23T13:14:54.051Z,62.50
2023-02-23T13:17:33.050Z,62.50
2023-02-23T13:20:20.816Z,62.90
2023-02-23T13:22:57.485Z,63.10
2023-02-23T13:25:29.510Z,63.30
2023-02-23T13:28:01.186Z,63.50
2023-02-23T13:30:32.901Z,63.80
2023-02-23T13:33:02.995Z,63.70
2023-02-23T13:35:35.691Z,63.90
2023-02-23T13:38:20.866Z,63.90
2023-02-23T13:40:55.591Z,63.80
2023-02-23T13:43:30.018Z,64.20
2023-02-23T13:46:16.430Z,64.40
2023-02-23T13:48:58.057Z,64.20
2023-02-23T13:51:32.243Z,64.40
2023-02-23T13:54:06.783Z,64.30
2023-02-23T13:56:42.475Z,64.30
2023-02-23T13:59:20.711Z,64.60
2023-02-23T14:01:50.876Z,64.60
2023-02-23T14:04:24.917Z,64.90
2023-02-23T14:07:05.012Z,64.70
2023-02-23T14:09:37.911Z,65.00
2023-02-23T14:12:05.446Z,66.00
2023-02-23T14:14:36.162Z,65.20
2023-02-23T14:17:10.584Z,65.50
2023-02-23T14:19:40.435Z,65.70
2023-02-23T14:22:17.677Z,65.60
2023-02-23T14:24:45.335Z,65.90
2023-02-23T14:27:41.428Z,66.10
2023-02-23T14:30:14.803Z,66.10
2023-02-23T14:32:42.748Z,66.00
2023-02-23T14:35:28.546Z,66.20
2023-02-23T14:38:00.236Z,66.40
2023-02-23T14:40:35.046Z,66.50
2023-02-23T14:43:03.351Z,66.70
2023-02-23T14:45:38.618Z,66.60
2023-02-23T14:48:07.625Z,66.80
2023-02-23T14:50:36.800Z,66.50
2023-02-23T14:53:06.967Z,66.60
2023-02-23T14:55:38.467Z,67.20
2023-02-23T14:58:21.718Z,67.10
2023-02-23T15:00:49.389Z,67.70
2023-02-23T15:03:16.850Z,67.90
2023-02-23T15:05:45.466Z,67.40
2023-02-23T15:08:15.660Z,67.50
2023-02-23T15:10:44.377Z,68.60
2023-02-23T15:13:14.457Z,68.90
2023-02-23T15:15:47.230Z,68.60
2023-02-23T15:18:22.123Z,69.80
2023-02-23T15:20:49.774Z,68.90
2023-02-23T15:23:19.479Z,70.70
2023-02-23T15:25:51.353Z,70.30
2023-02-23T15:28:19.214Z,70.80
2023-02-23T15:30:47.825Z,69.70
2023-02-23T15:33:16.518Z,71.20
2023-02-23T15:35:47.632Z,71.20
2023-02-23T15:38:42.264Z,72.30
2023-02-23T15:41:31.413Z,70.70
2023-02-23T15:44:18.192Z,71.50
2023-02-23T15:46:46.480Z,72.10
2023-02-23T15:49:19.616Z,70.70
2023-02-23T15:51:51.553Z,72.40
2023-02-23T15:54:29.977Z,71.20
2023-02-23T15:56:59.802Z,71.80
2023-02-23T15:59:31.414Z,71.40
2023-02-23T16:02:00.463Z,70.80
2023-02-23T16:04:32.873Z,70.70
2023-02-23T16:07:15.829Z,71.80
2023-02-23T16:09:56.790Z,72.80
2023-02-23T16:12:29.434Z,71.60
2023-02-23T16:15:06.949Z,71.30
2023-02-23T16:17:43.146Z,71.70
2023-02-23T16:20:19.090Z,72.30
2023-02-23T16:22:47.806Z,72.10
2023-02-23T16:25:17.019Z,72.70
2023-02-23T16:27:45.858Z,72.20
2023-02-23T16:30:16.386Z,72.40
2023-02-23T16:32:44.431Z,72.90
2023-02-23T16:35:17.883Z,73.10
2023-02-23T16:37:56.222Z,73.00
2023-02-23T16:40:23.861Z,71.70
2023-02-23T16:42:52.853Z,72.60
2023-02-23T16:45:21.964Z,72.90
2023-02-23T16:47:49.539Z,73.20
2023-02-23T16:50:21.659Z,73.00
2023-02-23T16:52:53.617Z,73.40
2023-02-23T16:55:26.257Z,73.20
2023-02-23T16:57:56.358Z,73.50
2023-02-23T17:00:25.718Z,73.60
2023-02-23T17:02:53.345Z,74.40
2023-02-23T17:05:23.879Z,74.20
2023-02-23T17:07:52.078Z,74.20
2023-02-23T17:10:27.467Z,73.10
2023-02-23T17:12:59.486Z,72.30
2023-02-23T17:15:29.450Z,74.00
2023-02-23T17:17:57.499Z,74.30
2023-02-23T17:20:28.704Z,72.80
2023-02-23T17:22:57.134Z,72.80
2023-02-23T17:25:27.512Z,73.90
2023-02-23T17:27:56.185Z,73.40
2023-02-23T17:30:24.019Z,73.10
2023-02-23T17:32:52.532Z,73.10
2023-02-23T17:35:20.817Z,73.30
2023-02-23T17:37:48.291Z,73.10
2023-02-23T17:40:18.097Z,74.10
2023-02-23T17:42:46.184Z,73.80
2023-02-23T17:45:13.748Z,73.50
2023-02-23T17:47:43.800Z,73.00
2023-02-23T17:50:11.648Z,73.20
2023-02-23T17:52:39.115Z,73.10
2023-02-23T17:55:07.749Z,73.30
2023-02-23T17:57:35.263Z,74.60
2023-02-23T18:00:02.827Z,75.30
2023-02-23T18:02:30.370Z,75.80
2023-02-23T18:04:57.849Z,75.70
2023-02-23T18:07:25.330Z,74.40
2023-02-23T18:09:52.930Z,73.90
2023-02-23T18:12:20.863Z,73.60
2023-02-23T18:14:49.262Z,73.60
2023-02-23T18:17:17.855Z,73.80
2023-02-23T18:19:46.973Z,73.90
2023-02-23T18:22:15.453Z,73.80
2023-02-23T18:24:42.975Z,73.80
2023-02-23T18:27:10.456Z,74.20
2023-02-23T18:29:38.084Z,74.60
2023-02-23T18:32:08.091Z,74.40
2023-02-23T18:34:36.170Z,74.50
2023-02-23T18:37:04.498Z,74.70
2023-02-23T18:39:32.207Z,74.90
2023-02-23T18:42:00.554Z,74.30
2023-02-23T18:44:28.368Z,74.80
2023-02-23T18:46:55.923Z,74.90
2023-02-23T18:49:25.507Z,74.70
2023-02-23T18:51:53.112Z,74.60
2023-02-23T18:54:22.911Z,74.30
2023-02-23T18:56:50.448Z,75.00
2023-02-23T18:59:18.814Z,74.80
2023-02-23T19:01:48.108Z,75.20
2023-02-23T19:04:16.706Z,75.10
2023-02-23T19:06:45.257Z,76.20
2023-02-23T19:09:14.754Z,76.80
2023-02-23T19:11:43.013Z,77.10
2023-02-23T19:14:16.229Z,77.60
2023-02-23T19:16:44.435Z,77.20
2023-02-23T19:19:12.010Z,76.90
2023-02-23T19:21:39.824Z,76.70
2023-02-23T19:24:07.676Z,77.00
2023-02-23T19:26:36.124Z,77.50
2023-02-23T19:29:04.075Z,77.10
2023-02-23T19:31:31.842Z,77.40
2023-02-23T19:33:59.910Z,77.00
2023-02-23T19:36:30.865Z,76.00
2023-02-23T19:39:06.281Z,76.00
2023-02-23T19:41:34.421Z,76.30
2023-02-23T19:44:02.016Z,75.80
2023-02-23T19:46:29.941Z,76.20
2023-02-23T19:48:57.473Z,76.90
2023-02-23T19:51:25.243Z,77.80
2023-02-23T19:53:56.678Z,77.80
2023-02-23T19:56:25.330Z,77.20
2023-02-23T19:58:53.060Z,76.90
2023-02-23T20:01:21.828Z,77.10
2023-02-23T20:03:55.934Z,76.90
2023-02-23T20:06:24.936Z,76.20
2023-02-23T20:08:52.905Z,77.00
2023-02-23T20:11:20.578Z,76.80
2023-02-23T20:13:51.108Z,76.10
2023-02-23T20:16:18.769Z,76.00
2023-02-23T20:18:46.666Z,76.00
2023-02-23T20:21:16.434Z,75.70
2023-02-23T20:23:45.195Z,75.60
2023-02-23T20:26:24.646Z,75.80
2023-02-23T20:28:52.345Z,76.10
2023-02-23T20:31:27.992Z,76.10
2023-02-23T20:33:56.514Z,75.80
2023-02-23T20:36:24.567Z,75.90
2023-02-23T20:38:52.391Z,75.90
2023-02-23T20:41:20.498Z,76.40
2023-02-23T20:43:48.491Z,76.40
2023-02-23T20:46:16.963Z,76.60
2023-02-23T20:48:44.803Z,76.60
2023-02-23T20:51:18.895Z,75.90
2023-02-23T20:53:47.295Z,75.90
2023-02-23T20:56:16.551Z,76.40
2023-02-23T20:58:44.387Z,76.20
2023-02-23T21:01:16.228Z,76.80
2023-02-23T21:03:43.787Z,76.50
2023-02-23T21:06:11.385Z,76.80
2023-02-23T21:08:40.127Z,76.50
2023-02-23T21:11:09.022Z,76.00
2023-02-23T21:13:37.404Z,75.80
2023-02-23T21:16:05.141Z,76.60
2023-02-23T21:18:32.770Z,76.50
2023-02-23T21:21:09.707Z,77.90
2023-02-23T21:23:38.505Z,78.80
2023-02-23T21:26:16.260Z,78.30
2023-02-23T21:28:44.748Z,78.60
2023-02-23T21:31:13.098Z,77.90
2023-02-23T21:33:41.569Z,78.70
2023-02-23T21:36:12.803Z,78.80
2023-02-23T21:38:42.068Z,78.10
2023-02-23T21:41:09.986Z,77.30
2023-02-23T21:43:39.010Z,77.40
2023-02-23T21:46:10.061Z,77.00
2023-02-23T21:48:37.752Z,77.10
2023-02-23T21:51:07.073Z,77.30
2023-02-23T21:53:34.687Z,77.00
2023-02-23T21:56:06.512Z,77.50
2023-02-23T21:58:34.135Z,76.50
2023-02-23T22:01:01.626Z,77.40
2023-02-23T22:03:29.631Z,77.80
2023-02-23T22:06:00.608Z,79.10
2023-02-23T22:08:28.859Z,77.00
2023-02-23T22:10:56.378Z,77.70
2023-02-23T22:13:24.008Z,77.30
2023-02-23T22:15:58.269Z,78.10
2023-02-23T22:18:25.924Z,77.00
2023-02-23T22:20:57.863Z,79.00
2023-02-23T22:23:26.566Z,78.20
2023-02-23T22:25:54.439Z,78.10
2023-02-23T22:28:21.961Z,77.70
2023-02-23T22:30:51.968Z,77.30
2023-02-23T22:33:20.152Z,77.60
2023-02-23T22:35:47.840Z,79.60
2023-02-23T22:38:15.506Z,78.20
2023-02-23T22:40:43.038Z,77.80
2023-02-23T22:43:11.399Z,77.20
2023-02-23T22:45:42.038Z,77.80
2023-02-23T22:48:10.197Z,77.90
2023-02-23T22:50:37.972Z,78.00
2023-02-23T22:53:06.181Z,77.50
2023-02-23T22:55:35.218Z,77.60
2023-02-23T22:58:08.513Z,78.70
2023-02-23T23:00:36.046Z,78.70
2023-02-23T23:03:05.281Z,77.30
2023-02-23T23:05:33.215Z,78.40
2023-02-23T23:08:00.743Z,77.60
2023-02-23T23:10:28.781Z,77.90
2023-02-23T23:12:57.409Z,78.40
2023-02-23T23:15:24.890Z,78.80
2023-02-23T23:17:52.949Z,78.80
2023-02-23T23:20:25.987Z,78.00
2023-02-23T23:22:54.072Z,77.80
2023-02-23T23:25:23.202Z,77.80
2023-02-23T23:27:54.206Z,77.80
2023-02-23T23:30:21.747Z,79.50
2023-02-23T23:32:49.446Z,78.30
2023-02-23T23:35:18.170Z,78.30
2023-02-23T23:37:45.714Z,78.00
2023-02-23T23:40:16.412Z,77.80
2023-02-23T23:42:46.248Z,77.70
2023-02-23T23:45:16.385Z,78.10
2023-02-23T23:47:47.019Z,78.00
2023-02-23T23:50:15.722Z,79.10
2023-02-23T23:52:44.536Z,77.70
2023-02-23T23:55:14.788Z,77.70
2023-02-23T23:57:42.638Z,78.10
